首页
METAR-TAF:

METAR-TAF

机场 :

巴巴萨海布·阿姆倍伽尔博士国际机场

那格浦尔, 印度

纬度: 21-06N, 经度: 079-03E, 海拔: 308米

当前天气观测

该预报发布于33分钟前的00:00 UTC
风速3节,风向西转西南
温度 30°C
湿度 70%
气压 1006 hPa
能見度: 4000
少量云层高于2000英尺
多云层高于10000英尺
霾,

METAR: VANP 170000Z 24003KT 4000 HZ FEW020 BKN100 30/24 Q1006 NOSIG

时间: 06:03 (00:33 UTC)

预报

该预报发布于1小时和33分钟前的23:00 UTC
预报有效从17日的 00点(UTC)到 18日的 06点(UTC)
风速4节,风向北转西北
能見度: 4000
散云层高于10000英尺
成为
从 17日的 03点(UTC)到 17日的 05点(UTC)
风速5节,风向西
能見度: 5000
少量云层高于10000英尺
短暂存在
从 17日的 13点(UTC)到 17日的 17点(UTC)
风速10节,风向西南
能見度: 2500
散云层高于2000英尺
少量云层高于3000英尺, 积雨云.
多云层高于8000英尺
雷暴, 小雨
成为
从 17日的 20点(UTC)到 17日的 22点(UTC)
风速节,风向
能見度: 4000
少量云层高于10000英尺
成为
从 18日的 01点(UTC)到 18日的 03点(UTC)
风速4节,风向西转西北
能見度: 5000
散云层高于10000英尺
霾,

TAF: VANP 162300Z 1700/1806 34004KT 4000 HZ SCT100 BECMG 1703/1705 27005KT 5000 HZ FEW100 TEMPO 1713/1717 23010KT 2500 -TSRA SCT020 FEW030CB BKN080 BECMG 1720/1722 00000KT 4000 HZ FEW100 BECMG 1801/1803 29004KT 5000 HZ SCT100

超过4000个机场的气象观测和天气预报(METAR&TAF报告)。

可查询的气象台以黄色和红色小点在地图上表示。

将鼠标移到小点上方,可查看气象台名称。

然后点击查看天气观测和预报。

如需切换地图:点击带黑十字的绿色按钮放大地图;点击带横线的绿色按钮缩小地图;或者点击绿色箭头查看邻近地区的地图。


METAR-TAF: